RPA3692 KMSY-KEWR
Flight info
| Callsign | RPA3692 |
|---|---|
| Flight time | 2h 45m |
| Altitude | 33000 |
| Route | GARTS MGM TWOUP Q22 BEARI QUART PHLBO4 |
| Aircraft | E75L/M-SDE3GILORVW/S |
Departure
| Time | 2026-04-21 23:49 |
|---|---|
| Airport | Louis Armstrong New Orleans International Airport (KMSY) |
Arrival
| Time | 2026-04-22 02:34 |
|---|---|
| Airport | Newark Liberty International Airport (KEWR) |
| Time | Latitude | Longitude | Altitude | Speed | Heading |
|---|---|---|---|---|---|
| 2026-04-21 23:17 | 29.99368 | -90.25480 | 6 ft | 0 kts | 93° |
| 2026-04-21 23:35 | 29.99370 | -90.25499 | 6 ft | 4 kts | 101° |
| 2026-04-21 23:35 | 29.99379 | -90.25527 | 6 ft | 4 kts | 130° |
| 2026-04-21 23:35 | 29.99398 | -90.25538 | 6 ft | 1 kts | 182° |
| 2026-04-21 23:40 | 29.99396 | -90.25538 | 6 ft | 1 kts | 182° |
| 2026-04-21 23:41 | 29.99378 | -90.25539 | 6 ft | 4 kts | 182° |
| 2026-04-21 23:41 | 29.99342 | -90.25540 | 6 ft | 6 kts | 182° |
| 2026-04-21 23:41 | 29.99293 | -90.25542 | 7 ft | 8 kts | 182° |
| 2026-04-21 23:41 | 29.99235 | -90.25543 | 8 ft | 9 kts | 171° |
| 2026-04-21 23:42 | 29.99204 | -90.25495 | 11 ft | 8 kts | 95° |
| 2026-04-21 23:42 | 29.99198 | -90.25422 | 9 ft | 10 kts | 95° |
| 2026-04-21 23:42 | 29.99192 | -90.25334 | 8 ft | 13 kts | 94° |
| 2026-04-21 23:42 | 29.99185 | -90.25222 | 8 ft | 15 kts | 94° |
| 2026-04-21 23:43 | 29.99177 | -90.25108 | 8 ft | 11 kts | 94° |
| 2026-04-21 23:43 | 29.99207 | -90.25047 | 11 ft | 9 kts | 19° |
| 2026-04-21 23:43 | 29.99274 | -90.25025 | 10 ft | 11 kts | 16° |
| 2026-04-21 23:43 | 29.99355 | -90.24999 | 9 ft | 13 kts | 15° |
| 2026-04-21 23:44 | 29.99448 | -90.24969 | 11 ft | 14 kts | 15° |
| 2026-04-21 23:44 | 29.99542 | -90.24939 | 12 ft | 14 kts | 16° |
| 2026-04-21 23:44 | 29.99644 | -90.24906 | 12 ft | 17 kts | 16° |
| 2026-04-21 23:44 | 29.99768 | -90.24866 | 8 ft | 18 kts | 15° |
| 2026-04-21 23:45 | 29.99890 | -90.24828 | 6 ft | 16 kts | 15° |
| 2026-04-21 23:45 | 30.00141 | -90.24747 | 2 ft | 18 kts | 15° |
| 2026-04-21 23:45 | 30.00252 | -90.24712 | 3 ft | 13 kts | 16° |
| 2026-04-21 23:46 | 30.00311 | -90.24659 | 2 ft | 6 kts | 73° |
| 2026-04-21 23:46 | 30.00313 | -90.24650 | 2 ft | 0 kts | 81° |
| 2026-04-21 23:47 | 30.00313 | -90.24648 | 2 ft | 1 kts | 82° |
| 2026-04-21 23:47 | 30.00313 | -90.24630 | 2 ft | 3 kts | 96° |
| 2026-04-21 23:47 | 30.00306 | -90.24597 | 3 ft | 6 kts | 104° |
| 2026-04-21 23:48 | 30.00277 | -90.24564 | 3 ft | 7 kts | 179° |
| 2026-04-21 23:48 | 30.00215 | -90.24582 | 3 ft | 18 kts | 195° |
| 2026-04-21 23:48 | 29.99854 | -90.24695 | 9 ft | 90 kts | 195° |
| 2026-04-21 23:48 | 29.99035 | -90.24955 | 8 ft | 153 kts | 195° |
| 2026-04-21 23:49 | 29.97918 | -90.25322 | 430 ft | 178 kts | 194° |
| 2026-04-21 23:49 | 29.96683 | -90.25740 | 1103 ft | 195 kts | 194° |
| 2026-04-21 23:49 | 29.95347 | -90.26207 | 1888 ft | 202 kts | 195° |
| 2026-04-21 23:49 | 29.93996 | -90.26715 | 2627 ft | 207 kts | 199° |
| 2026-04-21 23:50 | 29.92874 | -90.27779 | 3367 ft | 219 kts | 235° |
| 2026-04-21 23:50 | 29.92487 | -90.29526 | 3944 ft | 239 kts | 272° |
| 2026-04-21 23:50 | 29.93088 | -90.31365 | 4589 ft | 260 kts | 305° |
| 2026-04-21 23:50 | 29.94534 | -90.32820 | 4914 ft | 289 kts | 329° |
| 2026-04-21 23:51 | 29.96279 | -90.33987 | 5788 ft | 293 kts | 339° |
| 2026-04-21 23:51 | 29.98256 | -90.34449 | 6731 ft | 290 kts | 359° |
| 2026-04-21 23:51 | 30.00268 | -90.34601 | 7698 ft | 290 kts | 358° |
| 2026-04-21 23:51 | 30.02283 | -90.34760 | 8594 ft | 291 kts | 358° |
| 2026-04-21 23:52 | 30.04325 | -90.34905 | 9396 ft | 294 kts | 358° |
| 2026-04-21 23:52 | 30.06374 | -90.34847 | 10089 ft | 297 kts | 14° |
| 2026-04-21 23:52 | 30.08291 | -90.33901 | 10249 ft | 317 kts | 35° |
| 2026-04-21 23:52 | 30.10119 | -90.32341 | 10385 ft | 338 kts | 38° |
| 2026-04-21 23:53 | 30.12037 | -90.30660 | 10794 ft | 348 kts | 38° |
| 2026-04-21 23:53 | 30.13996 | -90.28941 | 11421 ft | 351 kts | 38° |
| 2026-04-21 23:53 | 30.15825 | -90.27199 | 11394 ft | 337 kts | 44° |
| 2026-04-21 23:53 | 30.17384 | -90.25287 | 11318 ft | 318 kts | 56° |
| 2026-04-21 23:54 | 30.18624 | -90.23139 | 11356 ft | 331 kts | 59° |
| 2026-04-21 23:54 | 30.19870 | -90.20817 | 11530 ft | 350 kts | 60° |
| 2026-04-21 23:54 | 30.21164 | -90.18349 | 12160 ft | 354 kts | 59° |
| 2026-04-21 23:54 | 30.22437 | -90.15947 | 12823 ft | 356 kts | 59° |
| 2026-04-21 23:55 | 30.23769 | -90.13463 | 13405 ft | 363 kts | 58° |
| 2026-04-21 23:55 | 30.25093 | -90.11004 | 14008 ft | 367 kts | 58° |
| 2026-04-21 23:55 | 30.26451 | -90.08480 | 14602 ft | 373 kts | 58° |
| 2026-04-21 23:55 | 30.27831 | -90.05905 | 15250 ft | 378 kts | 58° |
| 2026-04-21 23:56 | 30.29225 | -90.03290 | 15846 ft | 384 kts | 58° |
| 2026-04-21 23:56 | 30.30617 | -90.00634 | 16477 ft | 388 kts | 58° |
| 2026-04-21 23:56 | 30.32037 | -89.97972 | 17015 ft | 394 kts | 57° |
| 2026-04-21 23:56 | 30.33502 | -89.95257 | 17544 ft | 399 kts | 57° |
| 2026-04-21 23:57 | 30.34986 | -89.92499 | 18090 ft | 403 kts | 56° |
| 2026-04-21 23:57 | 30.36467 | -89.89722 | 18649 ft | 408 kts | 57° |
| 2026-04-21 23:57 | 30.37962 | -89.86901 | 19226 ft | 411 kts | 57° |
| 2026-04-21 23:57 | 30.39452 | -89.84092 | 19781 ft | 414 kts | 57° |
| 2026-04-21 23:58 | 30.40978 | -89.81217 | 20370 ft | 418 kts | 57° |
| 2026-04-21 23:58 | 30.42499 | -89.78336 | 20972 ft | 421 kts | 57° |
| 2026-04-21 23:58 | 30.44039 | -89.75431 | 21524 ft | 425 kts | 57° |
| 2026-04-21 23:58 | 30.45598 | -89.72488 | 22076 ft | 429 kts | 57° |
| 2026-04-21 23:59 | 30.47169 | -89.69518 | 22598 ft | 432 kts | 57° |
| 2026-04-21 23:59 | 30.48745 | -89.66536 | 23084 ft | 436 kts | 57° |
| 2026-04-21 23:59 | 30.50264 | -89.63654 | 23510 ft | 440 kts | 57° |
| 2026-04-21 23:59 | 30.51899 | -89.60547 | 23917 ft | 444 kts | 57° |
| 2026-04-22 00:00 | 30.53519 | -89.57463 | 24391 ft | 447 kts | 57° |
| 2026-04-22 00:00 | 30.55140 | -89.54380 | 24822 ft | 450 kts | 57° |
| 2026-04-22 00:00 | 30.56770 | -89.51274 | 25240 ft | 453 kts | 57° |
| 2026-04-22 00:00 | 30.58416 | -89.48136 | 25685 ft | 456 kts | 57° |
| 2026-04-22 00:01 | 30.60066 | -89.44985 | 26248 ft | 454 kts | 57° |
| 2026-04-22 00:01 | 30.61699 | -89.41867 | 26813 ft | 453 kts | 57° |
| 2026-04-22 00:01 | 30.63339 | -89.38730 | 27344 ft | 452 kts | 57° |
| 2026-04-22 00:01 | 30.64971 | -89.35610 | 27862 ft | 452 kts | 56° |
| 2026-04-22 00:02 | 30.66601 | -89.32490 | 28343 ft | 452 kts | 56° |
| 2026-04-22 00:02 | 30.68228 | -89.29372 | 28841 ft | 451 kts | 56° |
| 2026-04-22 00:02 | 30.69842 | -89.26276 | 29317 ft | 450 kts | 56° |
| 2026-04-22 00:02 | 30.71472 | -89.23139 | 29755 ft | 450 kts | 56° |
| 2026-04-22 00:03 | 30.73085 | -89.20031 | 30233 ft | 448 kts | 56° |
| 2026-04-22 00:03 | 30.74696 | -89.16930 | 30589 ft | 451 kts | 56° |
| 2026-04-22 00:03 | 30.76319 | -89.13805 | 31118 ft | 447 kts | 56° |
| 2026-04-22 00:03 | 30.77925 | -89.10708 | 31594 ft | 446 kts | 56° |
| 2026-04-22 00:04 | 30.79497 | -89.07669 | 31981 ft | 446 kts | 56° |
| 2026-04-22 00:04 | 30.81119 | -89.04530 | 32407 ft | 445 kts | 56° |
| 2026-04-22 00:04 | 30.82706 | -89.01455 | 32830 ft | 443 kts | 56° |
| 2026-04-22 00:04 | 30.84291 | -88.98384 | 33217 ft | 442 kts | 55° |
| 2026-04-22 00:05 | 30.85834 | -88.95392 | 33401 ft | 446 kts | 55° |
| 2026-04-22 00:05 | 30.87459 | -88.92244 | 33273 ft | 454 kts | 55° |
| 2026-04-22 00:05 | 30.89106 | -88.89041 | 33272 ft | 453 kts | 56° |
| 2026-04-22 00:06 | 30.92316 | -88.82774 | 33264 ft | 454 kts | 56° |
| 2026-04-22 00:06 | 30.95560 | -88.76442 | 33282 ft | 454 kts | 56° |
| 2026-04-22 00:07 | 30.98794 | -88.70130 | 33279 ft | 453 kts | 56° |
| 2026-04-22 00:07 | 31.02018 | -88.63815 | 33291 ft | 453 kts | 56° |
| 2026-04-22 00:08 | 31.05244 | -88.57497 | 33287 ft | 453 kts | 56° |
| 2026-04-22 00:08 | 31.08461 | -88.51186 | 33287 ft | 452 kts | 56° |
| 2026-04-22 00:09 | 31.11697 | -88.44895 | 33292 ft | 452 kts | 54° |
| 2026-04-22 00:09 | 31.15026 | -88.38742 | 33279 ft | 450 kts | 54° |
| 2026-04-22 00:10 | 31.18374 | -88.32492 | 33290 ft | 451 kts | 54° |
| 2026-04-22 00:10 | 31.21685 | -88.26263 | 33285 ft | 451 kts | 54° |
| 2026-04-22 00:11 | 31.24965 | -88.20086 | 33287 ft | 450 kts | 55° |
| 2026-04-22 00:11 | 31.28265 | -88.13866 | 33287 ft | 450 kts | 55° |
| 2026-04-22 00:12 | 31.31558 | -88.07646 | 33287 ft | 450 kts | 55° |
| 2026-04-22 00:12 | 31.34845 | -88.01429 | 33273 ft | 449 kts | 55° |
| 2026-04-22 00:13 | 31.38100 | -87.95258 | 33274 ft | 449 kts | 55° |
| 2026-04-22 00:13 | 31.41424 | -87.88943 | 33279 ft | 449 kts | 55° |
| 2026-04-22 00:14 | 31.44676 | -87.82765 | 33277 ft | 448 kts | 55° |
| 2026-04-22 00:14 | 31.47941 | -87.76557 | 33260 ft | 448 kts | 55° |
| 2026-04-22 00:15 | 31.51200 | -87.70334 | 33264 ft | 448 kts | 55° |
| 2026-04-22 00:15 | 31.54456 | -87.64114 | 33264 ft | 448 kts | 55° |
| 2026-04-22 00:16 | 31.57187 | -87.58891 | 33265 ft | 448 kts | 55° |
| 2026-04-22 00:16 | 31.60438 | -87.52663 | 33263 ft | 448 kts | 55° |
| 2026-04-22 00:17 | 31.64193 | -87.45402 | 33267 ft | 448 kts | 55° |
| 2026-04-22 00:17 | 31.66935 | -87.40171 | 33277 ft | 448 kts | 55° |
| 2026-04-22 00:18 | 31.70221 | -87.33871 | 33261 ft | 448 kts | 55° |
| 2026-04-22 00:18 | 31.73434 | -87.27664 | 33271 ft | 448 kts | 55° |
| 2026-04-22 00:19 | 31.76601 | -87.21540 | 33270 ft | 448 kts | 55° |
| 2026-04-22 00:19 | 31.79747 | -87.15460 | 33270 ft | 449 kts | 55° |
| 2026-04-22 00:20 | 31.82985 | -87.09183 | 33273 ft | 448 kts | 55° |
| 2026-04-22 00:20 | 31.86221 | -87.02908 | 33268 ft | 449 kts | 55° |
| 2026-04-22 00:21 | 31.89292 | -86.96932 | 33265 ft | 449 kts | 55° |
| 2026-04-22 00:21 | 31.92534 | -86.90621 | 33264 ft | 448 kts | 55° |
| 2026-04-22 00:22 | 31.95760 | -86.84327 | 33261 ft | 448 kts | 55° |
| 2026-04-22 00:22 | 31.98981 | -86.78032 | 33254 ft | 449 kts | 55° |
| 2026-04-22 00:23 | 32.02201 | -86.71729 | 33259 ft | 449 kts | 55° |
| 2026-04-22 00:23 | 32.05433 | -86.65397 | 33251 ft | 451 kts | 55° |
| 2026-04-22 00:24 | 32.08660 | -86.59063 | 33259 ft | 450 kts | 55° |
| 2026-04-22 00:24 | 32.11876 | -86.52731 | 33263 ft | 450 kts | 55° |
| 2026-04-22 00:25 | 32.15071 | -86.46433 | 33272 ft | 450 kts | 55° |
| 2026-04-22 00:25 | 32.18282 | -86.40099 | 33266 ft | 449 kts | 55° |
| 2026-04-22 00:26 | 32.21484 | -86.33765 | 33263 ft | 449 kts | 55° |
| 2026-04-22 00:26 | 32.25148 | -86.27839 | 33283 ft | 445 kts | 46° |
| 2026-04-22 00:27 | 32.29102 | -86.22237 | 33253 ft | 444 kts | 46° |
| 2026-04-22 00:27 | 32.33030 | -86.16585 | 33267 ft | 445 kts | 46° |
| 2026-04-22 00:28 | 32.36931 | -86.10903 | 33260 ft | 445 kts | 46° |
| 2026-04-22 00:28 | 32.40831 | -86.05230 | 33259 ft | 444 kts | 46° |
| 2026-04-22 00:29 | 32.44752 | -85.99531 | 33255 ft | 445 kts | 46° |
| 2026-04-22 00:29 | 32.48657 | -85.93837 | 33270 ft | 446 kts | 46° |
| 2026-04-22 00:30 | 32.52553 | -85.88142 | 33285 ft | 445 kts | 46° |
| 2026-04-22 00:30 | 32.56475 | -85.82416 | 33275 ft | 446 kts | 46° |
| 2026-04-22 00:31 | 32.60374 | -85.76709 | 33292 ft | 446 kts | 46° |
| 2026-04-22 00:31 | 32.64265 | -85.71002 | 33301 ft | 447 kts | 46° |
| 2026-04-22 00:32 | 32.68172 | -85.65265 | 33292 ft | 447 kts | 46° |
| 2026-04-22 00:32 | 32.72084 | -85.59507 | 33294 ft | 447 kts | 46° |
| 2026-04-22 00:33 | 32.75994 | -85.53748 | 33295 ft | 448 kts | 46° |
| 2026-04-22 00:33 | 32.79893 | -85.47995 | 33294 ft | 447 kts | 46° |
| 2026-04-22 00:34 | 32.83794 | -85.42232 | 33294 ft | 447 kts | 46° |
| 2026-04-22 00:34 | 32.87704 | -85.36445 | 33308 ft | 448 kts | 46° |
| 2026-04-22 00:35 | 32.91625 | -85.30629 | 33294 ft | 448 kts | 46° |
| 2026-04-22 00:35 | 32.95513 | -85.24856 | 33290 ft | 449 kts | 46° |
| 2026-04-22 00:36 | 32.99409 | -85.19056 | 33296 ft | 449 kts | 46° |
| 2026-04-22 00:36 | 33.03224 | -85.13398 | 33297 ft | 449 kts | 45° |
| 2026-04-22 00:37 | 33.07105 | -85.07601 | 33298 ft | 450 kts | 46° |
| 2026-04-22 00:37 | 33.11021 | -85.01717 | 33295 ft | 450 kts | 46° |
| 2026-04-22 00:38 | 33.14930 | -84.95887 | 33305 ft | 450 kts | 46° |
| 2026-04-22 00:38 | 33.18828 | -84.90044 | 33299 ft | 450 kts | 46° |
| 2026-04-22 00:39 | 33.22718 | -84.84200 | 33308 ft | 450 kts | 46° |
| 2026-04-22 00:39 | 33.26622 | -84.78333 | 33307 ft | 451 kts | 46° |
| 2026-04-22 00:40 | 33.30525 | -84.72457 | 33305 ft | 451 kts | 46° |
| 2026-04-22 00:40 | 33.34408 | -84.66600 | 33305 ft | 451 kts | 46° |
| 2026-04-22 00:41 | 33.38311 | -84.60699 | 33293 ft | 451 kts | 46° |
| 2026-04-22 00:41 | 33.42193 | -84.54817 | 33292 ft | 452 kts | 46° |
| 2026-04-22 00:42 | 33.46073 | -84.48940 | 33309 ft | 452 kts | 46° |
| 2026-04-22 00:42 | 33.49981 | -84.43005 | 33317 ft | 452 kts | 46° |
| 2026-04-22 00:43 | 33.53879 | -84.37081 | 33311 ft | 453 kts | 46° |
| 2026-04-22 00:43 | 33.57767 | -84.31160 | 33302 ft | 453 kts | 45° |
| 2026-04-22 00:44 | 33.61653 | -84.25229 | 33302 ft | 453 kts | 46° |
| 2026-04-22 00:44 | 33.65515 | -84.19326 | 33296 ft | 454 kts | 46° |
| 2026-04-22 00:45 | 33.69440 | -84.13326 | 33297 ft | 454 kts | 46° |
| 2026-04-22 00:45 | 33.73295 | -84.07419 | 33293 ft | 454 kts | 46° |
| 2026-04-22 00:46 | 33.77206 | -84.01406 | 33296 ft | 454 kts | 46° |
| 2026-04-22 00:46 | 33.81100 | -83.95410 | 33295 ft | 455 kts | 46° |
| 2026-04-22 00:47 | 33.84953 | -83.89477 | 33300 ft | 454 kts | 46° |
| 2026-04-22 00:47 | 33.88855 | -83.83447 | 33332 ft | 454 kts | 46° |
| 2026-04-22 00:48 | 33.92734 | -83.77312 | 33296 ft | 456 kts | 48° |
| 2026-04-22 00:48 | 33.96350 | -83.71304 | 33330 ft | 455 kts | 48° |
| 2026-04-22 00:49 | 33.99950 | -83.65403 | 33311 ft | 455 kts | 47° |
| 2026-04-22 00:49 | 34.03716 | -83.59276 | 33328 ft | 455 kts | 47° |
| 2026-04-22 00:50 | 34.07450 | -83.53161 | 33312 ft | 455 kts | 47° |
| 2026-04-22 00:50 | 34.10583 | -83.48012 | 33297 ft | 454 kts | 47° |
| 2026-04-22 00:51 | 34.14293 | -83.41918 | 33304 ft | 454 kts | 47° |
| 2026-04-22 00:51 | 34.17946 | -83.35908 | 33305 ft | 452 kts | 47° |
| 2026-04-22 00:52 | 34.21671 | -83.29765 | 33303 ft | 452 kts | 47° |
| 2026-04-22 00:52 | 34.25378 | -83.23641 | 33318 ft | 451 kts | 47° |
| 2026-04-22 00:53 | 34.29083 | -83.17515 | 33309 ft | 451 kts | 47° |
| 2026-04-22 00:53 | 34.32785 | -83.11381 | 33316 ft | 451 kts | 47° |
| 2026-04-22 00:54 | 34.36481 | -83.05244 | 33320 ft | 451 kts | 47° |
| 2026-04-22 00:54 | 34.39985 | -82.99419 | 33308 ft | 450 kts | 47° |
| 2026-04-22 00:55 | 34.43667 | -82.93288 | 33315 ft | 450 kts | 47° |
| 2026-04-22 00:55 | 34.49121 | -82.84180 | 33298 ft | 449 kts | 47° |
| 2026-04-22 00:56 | 34.52737 | -82.78132 | 33303 ft | 448 kts | 47° |
| 2026-04-22 00:56 | 34.56401 | -82.71998 | 33305 ft | 448 kts | 47° |
| 2026-04-22 00:57 | 34.60012 | -82.65939 | 33302 ft | 448 kts | 47° |
| 2026-04-22 00:57 | 34.63695 | -82.59754 | 33310 ft | 448 kts | 47° |
| 2026-04-22 00:58 | 34.67320 | -82.53651 | 33309 ft | 448 kts | 47° |
| 2026-04-22 00:58 | 34.70969 | -82.47483 | 33303 ft | 448 kts | 47° |
| 2026-04-22 00:59 | 34.74603 | -82.41347 | 33302 ft | 447 kts | 47° |
| 2026-04-22 00:59 | 34.78220 | -82.35222 | 33296 ft | 448 kts | 47° |
| 2026-04-22 01:00 | 34.81847 | -82.29071 | 33315 ft | 447 kts | 47° |
| 2026-04-22 01:00 | 34.85478 | -82.22908 | 33296 ft | 448 kts | 47° |
| 2026-04-22 01:01 | 34.89069 | -82.16790 | 33309 ft | 447 kts | 48° |
| 2026-04-22 01:01 | 34.92638 | -82.10705 | 33304 ft | 447 kts | 48° |
| 2026-04-22 01:02 | 34.96249 | -82.04548 | 33306 ft | 447 kts | 48° |
| 2026-04-22 01:02 | 34.99861 | -81.98362 | 33306 ft | 446 kts | 48° |
| 2026-04-22 01:03 | 35.03337 | -81.92399 | 33306 ft | 443 kts | 47° |
| 2026-04-22 01:03 | 35.07072 | -81.86293 | 33298 ft | 440 kts | 45° |
| 2026-04-22 01:04 | 35.10795 | -81.80472 | 33305 ft | 440 kts | 45° |
| 2026-04-22 01:04 | 35.14448 | -81.74600 | 33297 ft | 441 kts | 46° |
| 2026-04-22 01:05 | 35.18105 | -81.68686 | 33309 ft | 441 kts | 46° |
| 2026-04-22 01:05 | 35.21801 | -81.62738 | 33295 ft | 440 kts | 46° |
| 2026-04-22 01:06 | 35.25505 | -81.56758 | 33292 ft | 441 kts | 46° |
| 2026-04-22 01:06 | 35.29174 | -81.50817 | 33299 ft | 441 kts | 46° |
| 2026-04-22 01:07 | 35.32811 | -81.44915 | 33292 ft | 439 kts | 46° |
| 2026-04-22 01:07 | 35.36440 | -81.39033 | 33289 ft | 440 kts | 46° |
| 2026-04-22 01:08 | 35.40043 | -81.33180 | 33300 ft | 439 kts | 46° |
| 2026-04-22 01:08 | 35.43763 | -81.27124 | 33297 ft | 439 kts | 46° |
| 2026-04-22 01:09 | 35.47243 | -81.21441 | 33295 ft | 439 kts | 46° |
| 2026-04-22 01:09 | 35.50898 | -81.15470 | 33296 ft | 439 kts | 46° |
| 2026-04-22 01:10 | 35.54590 | -81.09426 | 33293 ft | 438 kts | 46° |
| 2026-04-22 01:10 | 35.58190 | -81.03524 | 33297 ft | 438 kts | 46° |
| 2026-04-22 01:11 | 35.61912 | -80.97359 | 33296 ft | 438 kts | 46° |
| 2026-04-22 01:11 | 35.65497 | -80.91404 | 33295 ft | 439 kts | 46° |
| 2026-04-22 01:12 | 35.69125 | -80.85380 | 33300 ft | 438 kts | 46° |
| 2026-04-22 01:12 | 35.72745 | -80.79361 | 33297 ft | 437 kts | 46° |
| 2026-04-22 01:13 | 35.76354 | -80.73348 | 33297 ft | 437 kts | 46° |
| 2026-04-22 01:13 | 35.80000 | -80.67264 | 33296 ft | 437 kts | 46° |
| 2026-04-22 01:14 | 35.83579 | -80.61276 | 33295 ft | 437 kts | 46° |
| 2026-04-22 01:14 | 35.87173 | -80.55263 | 33294 ft | 436 kts | 46° |
| 2026-04-22 01:15 | 35.90745 | -80.49265 | 33282 ft | 436 kts | 46° |
| 2026-04-22 01:15 | 35.94267 | -80.43340 | 33284 ft | 436 kts | 46° |
| 2026-04-22 01:16 | 35.97850 | -80.37309 | 33287 ft | 436 kts | 46° |
| 2026-04-22 01:16 | 36.01443 | -80.31276 | 33286 ft | 435 kts | 46° |
| 2026-04-22 01:17 | 36.05067 | -80.25202 | 33287 ft | 436 kts | 46° |
| 2026-04-22 01:17 | 36.08567 | -80.19303 | 33287 ft | 434 kts | 46° |
| 2026-04-22 01:18 | 36.12125 | -80.13299 | 33272 ft | 435 kts | 46° |
| 2026-04-22 01:18 | 36.15624 | -80.07392 | 33279 ft | 435 kts | 46° |
| 2026-04-22 01:19 | 36.19117 | -80.01485 | 33277 ft | 435 kts | 46° |
| 2026-04-22 01:19 | 36.22686 | -79.95435 | 33275 ft | 435 kts | 46° |
| 2026-04-22 01:20 | 36.26234 | -79.89409 | 33279 ft | 435 kts | 46° |
| 2026-04-22 01:20 | 36.29205 | -79.84362 | 33276 ft | 435 kts | 46° |
| 2026-04-22 01:21 | 36.33333 | -79.77325 | 33269 ft | 435 kts | 46° |
| 2026-04-22 01:21 | 36.36852 | -79.71325 | 33271 ft | 434 kts | 46° |
| 2026-04-22 01:22 | 36.40402 | -79.65258 | 33282 ft | 435 kts | 46° |
| 2026-04-22 01:22 | 36.43951 | -79.59176 | 33275 ft | 434 kts | 46° |
| 2026-04-22 01:23 | 36.47490 | -79.53104 | 33282 ft | 435 kts | 46° |
| 2026-04-22 01:23 | 36.50447 | -79.48022 | 33275 ft | 434 kts | 46° |
| 2026-04-22 01:24 | 36.53977 | -79.41947 | 33272 ft | 433 kts | 47° |
| 2026-04-22 01:24 | 36.57463 | -79.35937 | 33266 ft | 433 kts | 47° |
| 2026-04-22 01:25 | 36.60985 | -79.29849 | 33266 ft | 433 kts | 47° |
| 2026-04-22 01:25 | 36.64459 | -79.23835 | 33270 ft | 432 kts | 47° |
| 2026-04-22 01:26 | 36.67972 | -79.17752 | 33263 ft | 432 kts | 47° |
| 2026-04-22 01:26 | 36.71420 | -79.11763 | 33269 ft | 433 kts | 47° |
| 2026-04-22 01:27 | 36.74931 | -79.05655 | 33269 ft | 431 kts | 47° |
| 2026-04-22 01:27 | 36.78424 | -78.99560 | 33261 ft | 431 kts | 47° |
| 2026-04-22 01:28 | 36.81907 | -78.93479 | 33267 ft | 431 kts | 47° |
| 2026-04-22 01:28 | 36.85340 | -78.87448 | 33263 ft | 430 kts | 47° |
| 2026-04-22 01:29 | 36.88759 | -78.81400 | 33266 ft | 431 kts | 47° |
| 2026-04-22 01:29 | 36.92114 | -78.75472 | 33268 ft | 430 kts | 47° |
| 2026-04-22 01:30 | 36.95568 | -78.69355 | 33267 ft | 430 kts | 47° |
| 2026-04-22 01:30 | 36.98979 | -78.63303 | 33274 ft | 429 kts | 47° |
| 2026-04-22 01:31 | 37.02416 | -78.57185 | 33268 ft | 429 kts | 47° |
| 2026-04-22 01:31 | 37.05848 | -78.51075 | 33271 ft | 429 kts | 47° |
| 2026-04-22 01:32 | 37.09284 | -78.44946 | 33267 ft | 429 kts | 47° |
| 2026-04-22 01:32 | 37.12711 | -78.38826 | 33258 ft | 428 kts | 48° |
| 2026-04-22 01:33 | 37.16140 | -78.32687 | 33249 ft | 428 kts | 48° |
| 2026-04-22 01:33 | 37.19561 | -78.26549 | 33247 ft | 429 kts | 48° |
| 2026-04-22 01:34 | 37.23039 | -78.20531 | 33278 ft | 426 kts | 45° |
| 2026-04-22 01:34 | 37.26698 | -78.14612 | 33263 ft | 425 kts | 45° |
| 2026-04-22 01:35 | 37.30207 | -78.08796 | 33260 ft | 425 kts | 46° |
| 2026-04-22 01:35 | 37.33740 | -78.02852 | 33275 ft | 425 kts | 46° |
| 2026-04-22 01:36 | 37.37288 | -77.96914 | 33272 ft | 424 kts | 46° |
| 2026-04-22 01:36 | 37.40822 | -77.90991 | 33265 ft | 424 kts | 46° |
| 2026-04-22 01:37 | 37.44370 | -77.85044 | 33270 ft | 424 kts | 46° |
| 2026-04-22 01:37 | 37.47873 | -77.79152 | 33261 ft | 424 kts | 46° |
| 2026-04-22 01:38 | 37.51372 | -77.73281 | 33267 ft | 422 kts | 43° |
| 2026-04-22 01:38 | 37.53400 | -77.70790 | 33276 ft | 410 kts | 30° |
| 2026-04-22 01:38 | 37.55733 | -77.68751 | 33296 ft | 407 kts | 27° |
| 2026-04-22 01:39 | 37.60489 | -77.64910 | 33248 ft | 405 kts | 25° |
| 2026-04-22 01:39 | 37.65165 | -77.61184 | 33270 ft | 406 kts | 26° |
| 2026-04-22 01:40 | 37.69810 | -77.57399 | 33268 ft | 406 kts | 26° |
| 2026-04-22 01:40 | 37.74525 | -77.53554 | 33262 ft | 406 kts | 26° |
| 2026-04-22 01:41 | 37.79287 | -77.49691 | 33266 ft | 406 kts | 26° |
| 2026-04-22 01:41 | 37.84043 | -77.45826 | 33262 ft | 406 kts | 26° |
| 2026-04-22 01:42 | 37.88787 | -77.41952 | 33278 ft | 406 kts | 26° |
| 2026-04-22 01:42 | 37.93492 | -77.38121 | 33249 ft | 406 kts | 26° |
| 2026-04-22 01:43 | 37.98205 | -77.34268 | 33254 ft | 406 kts | 26° |
| 2026-04-22 01:43 | 38.02973 | -77.30368 | 33260 ft | 408 kts | 26° |
| 2026-04-22 01:44 | 38.07716 | -77.26488 | 33262 ft | 408 kts | 26° |
| 2026-04-22 01:44 | 38.12501 | -77.22567 | 33240 ft | 409 kts | 26° |
| 2026-04-22 01:45 | 38.17256 | -77.18667 | 33245 ft | 410 kts | 26° |
| 2026-04-22 01:45 | 38.22031 | -77.14735 | 33251 ft | 409 kts | 26° |
| 2026-04-22 01:46 | 38.26749 | -77.10850 | 33272 ft | 410 kts | 26° |
| 2026-04-22 01:46 | 38.31469 | -77.06869 | 33271 ft | 412 kts | 30° |
| 2026-04-22 01:47 | 38.35960 | -77.02412 | 33232 ft | 415 kts | 32° |
| 2026-04-22 01:47 | 38.40496 | -76.97899 | 33254 ft | 414 kts | 31° |
| 2026-04-22 01:48 | 38.45091 | -76.93521 | 33264 ft | 414 kts | 30° |
| 2026-04-22 01:48 | 38.49701 | -76.89090 | 33247 ft | 414 kts | 31° |
| 2026-04-22 01:49 | 38.54221 | -76.84706 | 33250 ft | 414 kts | 31° |
| 2026-04-22 01:49 | 38.58809 | -76.80259 | 33255 ft | 414 kts | 31° |
| 2026-04-22 01:50 | 38.63391 | -76.75816 | 33263 ft | 415 kts | 31° |
| 2026-04-22 01:50 | 38.67921 | -76.71416 | 33258 ft | 415 kts | 31° |
| 2026-04-22 01:51 | 38.72274 | -76.67178 | 33252 ft | 415 kts | 31° |
| 2026-04-22 01:51 | 38.76883 | -76.62685 | 33251 ft | 415 kts | 31° |
| 2026-04-22 01:52 | 38.81480 | -76.58192 | 33253 ft | 415 kts | 31° |
| 2026-04-22 01:52 | 38.86036 | -76.53732 | 33266 ft | 415 kts | 31° |
| 2026-04-22 01:53 | 38.90631 | -76.49229 | 33284 ft | 416 kts | 31° |
| 2026-04-22 01:53 | 38.95236 | -76.44710 | 33275 ft | 416 kts | 31° |
| 2026-04-22 01:54 | 38.99792 | -76.40230 | 33278 ft | 416 kts | 31° |
| 2026-04-22 01:54 | 39.04356 | -76.35686 | 32859 ft | 410 kts | 33° |
| 2026-04-22 01:55 | 39.06473 | -76.33255 | 32585 ft | 406 kts | 37° |
| 2026-04-22 01:55 | 39.08453 | -76.30826 | 31950 ft | 412 kts | 37° |
| 2026-04-22 01:55 | 39.10526 | -76.28273 | 31421 ft | 412 kts | 37° |
| 2026-04-22 01:55 | 39.11914 | -76.26602 | 31022 ft | 412 kts | 36° |
| 2026-04-22 01:56 | 39.14026 | -76.24124 | 30516 ft | 411 kts | 35° |
| 2026-04-22 01:56 | 39.16160 | -76.21668 | 29932 ft | 412 kts | 35° |
| 2026-04-22 01:56 | 39.18299 | -76.19203 | 29386 ft | 414 kts | 35° |
| 2026-04-22 01:56 | 39.20440 | -76.16715 | 28879 ft | 414 kts | 36° |
| 2026-04-22 01:57 | 39.22604 | -76.14179 | 28256 ft | 417 kts | 36° |
| 2026-04-22 01:57 | 39.24748 | -76.11658 | 27750 ft | 417 kts | 36° |
| 2026-04-22 01:57 | 39.26895 | -76.09134 | 27330 ft | 416 kts | 36° |
| 2026-04-22 01:57 | 39.29034 | -76.06621 | 27281 ft | 417 kts | 36° |
| 2026-04-22 01:58 | 39.31156 | -76.04131 | 27251 ft | 421 kts | 36° |
| 2026-04-22 01:58 | 39.33319 | -76.01587 | 27264 ft | 420 kts | 36° |
| 2026-04-22 01:58 | 39.35478 | -75.99044 | 27279 ft | 420 kts | 36° |
| 2026-04-22 01:58 | 39.37636 | -75.96500 | 27285 ft | 419 kts | 36° |
| 2026-04-22 01:59 | 39.39577 | -75.94210 | 27286 ft | 418 kts | 36° |
| 2026-04-22 01:59 | 39.41722 | -75.91681 | 27210 ft | 419 kts | 36° |
| 2026-04-22 01:59 | 39.43901 | -75.89116 | 26168 ft | 428 kts | 36° |
| 2026-04-22 01:59 | 39.46074 | -75.86541 | 24987 ft | 420 kts | 36° |
| 2026-04-22 02:00 | 39.48118 | -75.84104 | 25031 ft | 409 kts | 36° |
| 2026-04-22 02:00 | 39.50256 | -75.81578 | 24790 ft | 416 kts | 36° |
| 2026-04-22 02:00 | 39.52368 | -75.79081 | 24566 ft | 416 kts | 36° |
| 2026-04-22 02:00 | 39.54496 | -75.76561 | 24400 ft | 412 kts | 36° |
| 2026-04-22 02:01 | 39.56613 | -75.74048 | 24123 ft | 413 kts | 36° |
| 2026-04-22 02:01 | 39.58720 | -75.71540 | 23938 ft | 411 kts | 36° |
| 2026-04-22 02:01 | 39.60750 | -75.69126 | 23735 ft | 408 kts | 36° |
| 2026-04-22 02:01 | 39.62910 | -75.66556 | 23478 ft | 409 kts | 36° |
| 2026-04-22 02:02 | 39.64996 | -75.64068 | 23295 ft | 407 kts | 36° |
| 2026-04-22 02:02 | 39.67080 | -75.61582 | 23035 ft | 405 kts | 36° |
| 2026-04-22 02:02 | 39.69159 | -75.59101 | 22568 ft | 404 kts | 36° |
| 2026-04-22 02:02 | 39.71198 | -75.56644 | 22140 ft | 400 kts | 36° |
| 2026-04-22 02:03 | 39.73192 | -75.54236 | 21562 ft | 396 kts | 36° |
| 2026-04-22 02:03 | 39.75195 | -75.51813 | 21036 ft | 391 kts | 36° |
| 2026-04-22 02:03 | 39.77172 | -75.49429 | 20570 ft | 386 kts | 36° |
| 2026-04-22 02:03 | 39.78975 | -75.47257 | 20040 ft | 385 kts | 36° |
| 2026-04-22 02:04 | 39.82828 | -75.42607 | 19048 ft | 378 kts | 36° |
| 2026-04-22 02:04 | 39.84744 | -75.40291 | 18540 ft | 375 kts | 36° |
| 2026-04-22 02:04 | 39.86635 | -75.38001 | 18094 ft | 371 kts | 36° |
| 2026-04-22 02:05 | 39.88503 | -75.35740 | 17566 ft | 369 kts | 36° |
| 2026-04-22 02:05 | 39.90375 | -75.33468 | 17093 ft | 367 kts | 36° |
| 2026-04-22 02:05 | 39.92232 | -75.31217 | 16463 ft | 365 kts | 36° |
| 2026-04-22 02:05 | 39.94102 | -75.28950 | 15786 ft | 361 kts | 36° |
| 2026-04-22 02:06 | 39.95928 | -75.26719 | 15335 ft | 352 kts | 36° |
| 2026-04-22 02:06 | 39.97703 | -75.24560 | 14868 ft | 352 kts | 35° |
| 2026-04-22 02:06 | 39.99495 | -75.22387 | 14393 ft | 352 kts | 36° |
| 2026-04-22 02:06 | 40.01244 | -75.20260 | 13950 ft | 342 kts | 36° |
| 2026-04-22 02:07 | 40.02978 | -75.18149 | 13492 ft | 332 kts | 35° |
| 2026-04-22 02:07 | 40.04662 | -75.16090 | 13050 ft | 325 kts | 35° |
| 2026-04-22 02:07 | 40.06268 | -75.14121 | 12632 ft | 317 kts | 35° |
| 2026-04-22 02:07 | 40.07862 | -75.12169 | 12216 ft | 311 kts | 35° |
| 2026-04-22 02:08 | 40.09403 | -75.10282 | 11811 ft | 305 kts | 35° |
| 2026-04-22 02:08 | 40.10921 | -75.08427 | 11421 ft | 299 kts | 35° |
| 2026-04-22 02:08 | 40.12413 | -75.06606 | 11138 ft | 292 kts | 36° |
| 2026-04-22 02:08 | 40.13881 | -75.04812 | 10801 ft | 287 kts | 36° |
| 2026-04-22 02:09 | 40.15214 | -75.03178 | 10551 ft | 287 kts | 36° |
| 2026-04-22 02:09 | 40.16685 | -75.01387 | 10349 ft | 289 kts | 37° |
| 2026-04-22 02:09 | 40.18163 | -74.99589 | 10089 ft | 291 kts | 37° |
| 2026-04-22 02:09 | 40.19626 | -74.97790 | 9861 ft | 290 kts | 38° |
| 2026-04-22 02:10 | 40.21031 | -74.96055 | 9626 ft | 289 kts | 38° |
| 2026-04-22 02:10 | 40.22492 | -74.94253 | 9399 ft | 290 kts | 39° |
| 2026-04-22 02:10 | 40.23956 | -74.92450 | 9155 ft | 288 kts | 39° |
| 2026-04-22 02:10 | 40.25424 | -74.90644 | 8814 ft | 291 kts | 39° |
| 2026-04-22 02:11 | 40.26862 | -74.88791 | 8519 ft | 289 kts | 43° |
| 2026-04-22 02:11 | 40.28216 | -74.86859 | 8248 ft | 286 kts | 45° |
| 2026-04-22 02:11 | 40.29519 | -74.84926 | 8133 ft | 283 kts | 45° |
| 2026-04-22 02:11 | 40.30834 | -74.83002 | 7916 ft | 286 kts | 44° |
| 2026-04-22 02:12 | 40.32172 | -74.81113 | 7988 ft | 281 kts | 44° |
| 2026-04-22 02:12 | 40.33522 | -74.79252 | 7986 ft | 286 kts | 43° |
| 2026-04-22 02:12 | 40.34908 | -74.77347 | 7973 ft | 284 kts | 43° |
| 2026-04-22 02:12 | 40.36260 | -74.75456 | 7982 ft | 285 kts | 44° |
| 2026-04-22 02:13 | 40.37610 | -74.73545 | 7983 ft | 284 kts | 44° |
| 2026-04-22 02:13 | 40.38924 | -74.71661 | 7982 ft | 284 kts | 44° |
| 2026-04-22 02:13 | 40.40269 | -74.69755 | 7984 ft | 285 kts | 44° |
| 2026-04-22 02:13 | 40.41630 | -74.67882 | 7978 ft | 283 kts | 38° |
| 2026-04-22 02:14 | 40.43318 | -74.66645 | 7982 ft | 276 kts | 13° |
| 2026-04-22 02:14 | 40.45174 | -74.66047 | 7996 ft | 274 kts | 8° |
| 2026-04-22 02:14 | 40.47052 | -74.65588 | 7968 ft | 275 kts | 6° |
| 2026-04-22 02:14 | 40.48830 | -74.65190 | 7969 ft | 268 kts | 7° |
| 2026-04-22 02:15 | 40.50612 | -74.64759 | 7928 ft | 253 kts | 7° |
| 2026-04-22 02:15 | 40.52314 | -74.64296 | 7875 ft | 240 kts | 8° |
| 2026-04-22 02:15 | 40.53863 | -74.63848 | 7986 ft | 222 kts | 8° |
| 2026-04-22 02:15 | 40.55399 | -74.63405 | 8001 ft | 230 kts | 8° |
| 2026-04-22 02:16 | 40.56978 | -74.62990 | 7995 ft | 231 kts | 7° |
| 2026-04-22 02:16 | 40.58385 | -74.62628 | 7987 ft | 230 kts | 7° |
| 2026-04-22 02:16 | 40.60008 | -74.62208 | 7987 ft | 230 kts | 7° |
| 2026-04-22 02:16 | 40.61590 | -74.61788 | 7991 ft | 230 kts | 8° |
| 2026-04-22 02:17 | 40.63152 | -74.61361 | 7995 ft | 230 kts | 8° |
| 2026-04-22 02:17 | 40.64732 | -74.60942 | 8005 ft | 230 kts | 7° |
| 2026-04-22 02:17 | 40.66307 | -74.60546 | 7967 ft | 231 kts | 7° |
| 2026-04-22 02:17 | 40.67879 | -74.60119 | 7977 ft | 230 kts | 8° |
| 2026-04-22 02:18 | 40.69450 | -74.59680 | 7980 ft | 231 kts | 8° |
| 2026-04-22 02:18 | 40.70994 | -74.59251 | 7983 ft | 231 kts | 8° |
| 2026-04-22 02:18 | 40.72576 | -74.58818 | 7978 ft | 231 kts | 7° |
| 2026-04-22 02:18 | 40.74154 | -74.58397 | 7981 ft | 230 kts | 7° |
| 2026-04-22 02:19 | 40.75747 | -74.57962 | 8004 ft | 232 kts | 8° |
| 2026-04-22 02:19 | 40.77306 | -74.57530 | 7979 ft | 232 kts | 8° |
| 2026-04-22 02:19 | 40.78813 | -74.57122 | 7997 ft | 231 kts | 7° |
| 2026-04-22 02:19 | 40.80393 | -74.56721 | 8002 ft | 231 kts | 7° |
| 2026-04-22 02:20 | 40.81971 | -74.56313 | 8003 ft | 231 kts | 7° |
| 2026-04-22 02:20 | 40.83537 | -74.55891 | 7997 ft | 231 kts | 8° |
| 2026-04-22 02:20 | 40.85114 | -74.55425 | 7997 ft | 231 kts | 9° |
| 2026-04-22 02:20 | 40.86649 | -74.54798 | 7994 ft | 235 kts | 26° |
| 2026-04-22 02:21 | 40.87853 | -74.53290 | 8029 ft | 244 kts | 48° |
| 2026-04-22 02:21 | 40.88720 | -74.51359 | 8019 ft | 249 kts | 68° |
| 2026-04-22 02:21 | 40.89256 | -74.49195 | 7999 ft | 248 kts | 70° |
| 2026-04-22 02:21 | 40.89727 | -74.47274 | 7966 ft | 246 kts | 70° |
| 2026-04-22 02:22 | 40.90261 | -74.45110 | 7974 ft | 247 kts | 70° |
| 2026-04-22 02:22 | 40.90794 | -74.42958 | 8007 ft | 247 kts | 70° |
| 2026-04-22 02:22 | 40.91330 | -74.40792 | 8009 ft | 249 kts | 69° |
| 2026-04-22 02:22 | 40.91866 | -74.38620 | 7989 ft | 248 kts | 70° |
| 2026-04-22 02:23 | 40.92400 | -74.36469 | 8008 ft | 247 kts | 70° |
| 2026-04-22 02:23 | 40.92937 | -74.34296 | 8016 ft | 248 kts | 69° |
| 2026-04-22 02:23 | 40.93470 | -74.32128 | 8015 ft | 249 kts | 71° |
| 2026-04-22 02:23 | 40.93638 | -74.29867 | 8000 ft | 250 kts | 98° |
| 2026-04-22 02:24 | 40.93323 | -74.27616 | 8038 ft | 252 kts | 99° |
| 2026-04-22 02:24 | 40.93016 | -74.25326 | 8006 ft | 253 kts | 99° |
| 2026-04-22 02:24 | 40.92714 | -74.23064 | 8000 ft | 251 kts | 100° |
| 2026-04-22 02:24 | 40.92111 | -74.20962 | 8010 ft | 249 kts | 121° |
| 2026-04-22 02:25 | 40.91238 | -74.18959 | 8031 ft | 253 kts | 120° |
| 2026-04-22 02:25 | 40.90390 | -74.16987 | 8000 ft | 252 kts | 121° |
| 2026-04-22 02:25 | 40.89504 | -74.14925 | 8006 ft | 251 kts | 121° |
| 2026-04-22 02:25 | 40.88633 | -74.12902 | 7788 ft | 258 kts | 120° |
| 2026-04-22 02:26 | 40.87794 | -74.10960 | 7455 ft | 261 kts | 120° |
| 2026-04-22 02:26 | 40.86925 | -74.08853 | 7092 ft | 262 kts | 112° |
| 2026-04-22 02:26 | 40.86659 | -74.06519 | 6672 ft | 255 kts | 80° |
| 2026-04-22 02:26 | 40.87282 | -74.04507 | 6298 ft | 240 kts | 47° |
| 2026-04-22 02:27 | 40.88542 | -74.03218 | 5949 ft | 224 kts | 17° |
| 2026-04-22 02:27 | 40.90032 | -74.03094 | 5648 ft | 216 kts | 340° |
| 2026-04-22 02:27 | 40.91257 | -74.04182 | 5410 ft | 216 kts | 304° |
| 2026-04-22 02:27 | 40.91721 | -74.06008 | 5212 ft | 208 kts | 269° |
| 2026-04-22 02:28 | 40.91297 | -74.07677 | 4941 ft | 198 kts | 233° |
| 2026-04-22 02:28 | 40.90180 | -74.08608 | 4639 ft | 194 kts | 193° |
| 2026-04-22 02:28 | 40.88853 | -74.08406 | 4366 ft | 190 kts | 165° |
| 2026-04-22 02:28 | 40.87612 | -74.07916 | 4106 ft | 183 kts | 166° |
| 2026-04-22 02:29 | 40.86413 | -74.07471 | 3850 ft | 178 kts | 166° |
| 2026-04-22 02:29 | 40.85224 | -74.07203 | 3620 ft | 167 kts | 182° |
| 2026-04-22 02:29 | 40.84097 | -74.07253 | 3382 ft | 157 kts | 182° |
| 2026-04-22 02:29 | 40.83077 | -74.07602 | 3119 ft | 150 kts | 207° |
| 2026-04-22 02:30 | 40.82170 | -74.08252 | 2877 ft | 145 kts | 205° |
| 2026-04-22 02:30 | 40.81266 | -74.08791 | 2671 ft | 141 kts | 203° |
| 2026-04-22 02:30 | 40.80410 | -74.09324 | 2467 ft | 136 kts | 205° |
| 2026-04-22 02:30 | 40.79569 | -74.09874 | 2256 ft | 133 kts | 205° |
| 2026-04-22 02:31 | 40.78737 | -74.10405 | 2063 ft | 133 kts | 205° |
| 2026-04-22 02:31 | 40.77901 | -74.10937 | 1854 ft | 135 kts | 205° |
| 2026-04-22 02:31 | 40.77074 | -74.11470 | 1623 ft | 132 kts | 205° |
| 2026-04-22 02:31 | 40.76246 | -74.12001 | 1418 ft | 132 kts | 205° |
| 2026-04-22 02:32 | 40.75427 | -74.12522 | 1253 ft | 134 kts | 205° |
| 2026-04-22 02:32 | 40.74583 | -74.13063 | 1073 ft | 134 kts | 205° |
| 2026-04-22 02:32 | 40.73745 | -74.13600 | 894 ft | 133 kts | 205° |
| 2026-04-22 02:32 | 40.72922 | -74.14125 | 721 ft | 133 kts | 205° |
| 2026-04-22 02:33 | 40.72356 | -74.14487 | 598 ft | 133 kts | 205° |
| 2026-04-22 02:33 | 40.71520 | -74.15023 | 416 ft | 132 kts | 206° |
| 2026-04-22 02:33 | 40.70699 | -74.15560 | 245 ft | 132 kts | 205° |
| 2026-04-22 02:33 | 40.69869 | -74.16085 | 84 ft | 131 kts | 206° |
| 2026-04-22 02:34 | 40.69117 | -74.16561 | 23 ft | 102 kts | 205° |
| 2026-04-22 02:34 | 40.68617 | -74.16881 | 20 ft | 58 kts | 205° |
| 2026-04-22 02:34 | 40.68397 | -74.17028 | 22 ft | 22 kts | 214° |
| 2026-04-22 02:34 | 40.68279 | -74.17158 | 20 ft | 17 kts | 227° |
| 2026-04-22 02:35 | 40.68219 | -74.17267 | 20 ft | 9 kts | 234° |
| 2026-04-22 02:35 | 40.68189 | -74.17323 | 19 ft | 5 kts | 235° |
| 2026-04-22 02:35 | 40.68166 | -74.17367 | 20 ft | 6 kts | 235° |
| 2026-04-22 02:35 | 40.68150 | -74.17399 | 19 ft | 5 kts | 240° |
| 2026-04-22 02:36 | 40.68149 | -74.17456 | 21 ft | 8 kts | 292° |
| 2026-04-22 02:36 | 40.68175 | -74.17526 | 21 ft | 9 kts | 296° |
| 2026-04-22 02:36 | 40.68200 | -74.17596 | 19 ft | 8 kts | 295° |
| 2026-04-22 02:36 | 40.68226 | -74.17651 | 20 ft | 7 kts | 334° |
| 2026-04-22 02:37 | 40.68275 | -74.17638 | 21 ft | 9 kts | 27° |
| 2026-04-22 02:37 | 40.68335 | -74.17599 | 20 ft | 11 kts | 26° |
| 2026-04-22 02:37 | 40.68405 | -74.17554 | 22 ft | 12 kts | 26° |
| 2026-04-22 02:37 | 40.68480 | -74.17507 | 22 ft | 12 kts | 26° |
| 2026-04-22 02:38 | 40.68552 | -74.17461 | 21 ft | 14 kts | 26° |
| 2026-04-22 02:38 | 40.68643 | -74.17403 | 21 ft | 15 kts | 26° |
| 2026-04-22 02:38 | 40.68730 | -74.17348 | 21 ft | 15 kts | 26° |
| 2026-04-22 02:38 | 40.68836 | -74.17280 | 20 ft | 18 kts | 26° |
| 2026-04-22 02:39 | 40.68953 | -74.17206 | 22 ft | 17 kts | 26° |
| 2026-04-22 02:39 | 40.69061 | -74.17137 | 21 ft | 17 kts | 26° |
| 2026-04-22 02:39 | 40.69150 | -74.17081 | 21 ft | 11 kts | 26° |
| 2026-04-22 02:39 | 40.69206 | -74.17075 | 20 ft | 8 kts | 320° |
| 2026-04-22 02:40 | 40.69239 | -74.17148 | 20 ft | 11 kts | 297° |
| 2026-04-22 02:40 | 40.69275 | -74.17235 | 21 ft | 12 kts | 302° |
| 2026-04-22 02:40 | 40.69309 | -74.17297 | 20 ft | 5 kts | 329° |
| 2026-04-22 02:40 | 40.69339 | -74.17280 | 20 ft | 5 kts | 43° |
| 2026-04-22 02:41 | 40.69348 | -74.17269 | 21 ft | 2 kts | 41° |
| 2026-04-22 02:41 | 40.69354 | -74.17262 | 20 ft | 0 kts | 39° |
| 2026-04-22 02:42 | 40.69379 | -74.17297 | 20 ft | 0 kts | 44° |